Tuesday, October 21, 2014
07:11 UTC
  |  Log In   |  Register Free
Airport Search:

De Kalb County Airport
(KGWB)

De Kalb County Airport Diagram
No Airport Diagram Available

FAA data valid effective September 18, 2014 - November 13, 2014 (unless otherwise noted).

 
 
 
 
 
 
 
 
 
 
 
 
 
 

Current Aviation Weather for De Kalb County Airport (KGWB)

The most recent METAR observation for KGWB was updated at: 0612
METAR Summary (Translated METAR)
KGWB
210555Z AUTO 31007KT 10SM CLR 08/05 A2993 RMK AO2
KANQ
210655Z AUTO 33005KT 10SM OVC050 08/06 A2993 RMK
(20 nm NW from KGWB)
KFWA
210554Z 31006KT 10SM BKN065 10/06 A2994 RMK AO2 SLP139 T01000061 10139 20100 51004
(20.6 nm SW from KGWB)
TAF Summary (Translated TAF)
KFWA
(20.6 nm SW from KGWB)
210540Z 2106/2206 33008KT P6SM OVC050 FM212100 36010KT P6SM SCT030
  Airport Weather Conditions for KGWB

 Current Weather at GWB
46° F
Fair
Northwest winds at 8.1 mph
GWB NOAA Radar

Pressure: 29.93 in
Humidity: 82%
Wind: Northwest at 8.1 MPH (7 KT)
Dew Point: 41.0°F
Visibility: 10.00 mi


Airport Weather Forecast for KGWB

Translated METAR and TAF for KGWB
Translated METAR for KGWB (0706 UTC 21 October 2014)
found at http://aviationweather.gov/adds/metars/
 
METAR text: KGWB 210655Z AUTO 31004KT 10SM SCT055 08/05 A2995 RMK AO2
Conditions at: KGWB (AUBURN DEKALB C , IN, US) observed 0655 UTC 21 October 2014
Temperature: 8.0°C (46°F)
Dewpoint: 5.0°C (41°F) [RH = 81%]
Pressure (altimeter): 29.95 inches Hg (1014.3 mb)
Winds: from the NW (310 degrees) at 5 MPH (4 knots; 2.1 m/s)
Visibility: 10 or more miles (16+ km)
Ceiling: at least 12,000 feet AGL
Clouds: scattered clouds at 5500 feet AGL
Weather: automated observation with no human augmentation;
there may or may not be significant weather present at this time
Translated TAF for KGWB

There is no translated TAF available for this airport

Find All Airport Services Find A Hotel Find A Rental Car Find A Golf Course Find A Restaurant $100 Hamburger



FBO's on the Field
FBO Company Facility Photos Services Transportation Aviation Fuel Prices: Prices include tax
Catering Weather Repair Courtesy Rental Type 100LL JetA JetA+ MOGAS 8087
 
Century Aviation

This FBO has not yet been rated
FS:Shell
Last Updated: Oct-02
Login to update fuel prices
SS:
Contact Century AviationMore FBO Information
 
Add another FBO Facility Photos Catering Weather Repair Courtesy Rental Type 100LL JetA JetA+ MOGAS 8087
Services Transportation Aviation Fuel Prices: Prices include tax


model-print
model-print
model-print
model-print